Time;durP1;ratioP1;P1;durP2;ratioP2;P2;SDS_P1;SDS_P2;PMS_P1;PMS_P2;Temp;Humidity;BMP_temperature;BMP_pressure;BME280_temperature;BME280_humidity;BME280_pressure;Samples;Min_cycle;Max_cycle;Signal;HPM_P1;HPM_P2
2024/01/11 00:01:24;;;;;;;14.07;3.78;;;;;;;;;;5019706;28;20030;-80
2024/01/11 00:03:50;;;;;;;10.85;3.42;;;;;;;;;;5020139;28;20030;-79
2024/01/11 00:06:16;;;;;;;9.73;3.17;;;;;;;;;;5020586;28;20029;-79
2024/01/11 00:08:42;;;;;;;13.60;3.67;;;;;;;;;;5038704;28;20030;-80
2024/01/11 00:11:08;;;;;;;10.82;3.38;;;;;;;;;;5038620;28;20100;-79
2024/01/11 00:13:34;;;;;;;12.43;4.07;;;;;;;;;;5020135;28;20025;-79
2024/01/11 00:18:39;;;;;;;;;;;;;;;;;;6166367;23;20024;-80
2024/01/11 00:21:06;;;;;;;12.55;3.45;;;;;;;;;;5018543;28;20000;-78
2024/01/11 00:23:32;;;;;;;14.55;4.25;;;;;;;;;;5037110;28;20041;-78
2024/01/11 00:26:01;;;;;;;14.85;3.40;;;;;;;;;;5048033;28;20021;-79
2024/01/11 00:28:28;;;;;;;10.57;4.00;;;;;;;;;;5040166;28;20052;-79
2024/01/11 00:30:57;;;;;;;12.93;3.35;;;;;;;;;;5058409;28;20026;-79
2024/01/11 00:33:23;;;;;;;15.02;4.68;;;;;;;;;;5039289;28;20025;-79
2024/01/11 00:35:51;;;;;;;13.02;3.67;;;;;;;;;;5057343;28;20072;-79
2024/01/11 00:38:17;;;;;;;17.40;3.42;;;;;;;;;;5039786;28;20031;-80
2024/01/11 00:40:43;;;;;;;13.45;4.45;;;;;;;;;;5040114;28;20067;-79
2024/01/11 00:43:09;;;;;;;10.48;3.85;;;;;;;;;;5039048;28;20033;-79
2024/01/11 00:53:57;;;;;;;15.52;3.97;;;;;;;;;;5839616;22;20050;-81
2024/01/11 00:56:23;;;;;;;12.32;3.88;;;;;;;;;;5029284;28;20029;-80
2024/01/11 00:58:49;;;;;;;17.27;4.18;;;;;;;;;;5037095;28;20148;-80
2024/01/11 01:01:19;;;;;;;11.18;3.88;;;;;;;;;;5035632;28;20036;-80
2024/01/11 01:03:48;;;;;;;15.32;4.20;;;;;;;;;;5036985;28;20041;-80
2024/01/11 01:06:14;;;;;;;11.40;3.85;;;;;;;;;;5035185;28;20365;-77
2024/01/11 01:08:39;;;;;;;13.88;4.47;;;-4.80;99.90;;;;;;5034416;28;20416;-77
2024/01/11 01:11:05;;;;;;;14.60;4.38;;;-4.80;99.90;;;;;;5037396;28;20022;-77
2024/01/11 01:13:31;;;;;;;13.68;4.15;;;-4.80;99.90;;;;;;5037109;28;20030;-77
2024/01/11 01:15:56;;;;;;;10.65;4.10;;;-4.90;99.90;;;;;;5036805;28;20442;-77
2024/01/11 01:18:22;;;;;;;13.70;4.40;;;-4.90;99.90;;;;;;5035255;28;20041;-77
2024/01/11 01:20:48;;;;;;;12.25;3.85;;;-4.90;99.90;;;;;;5036340;28;20087;-77
2024/01/11 01:23:13;;;;;;;14.38;3.53;;;-5.00;99.90;;;;;;5036159;28;20026;-77
2024/01/11 01:25:39;;;;;;;13.18;3.90;;;-5.00;99.90;;;;;;5036430;28;20026;-76
2024/01/11 01:28:05;;;;;;;16.23;4.40;;;-5.00;99.90;;;;;;5035935;28;20029;-76
2024/01/11 01:30:30;;;;;;;16.10;4.25;;;-5.00;99.90;;;;;;5038410;28;20024;-77
2024/01/11 01:32:56;;;;;;;15.25;4.57;;;-5.00;99.90;;;;;;5039200;28;20025;-77
2024/01/11 01:35:22;;;;;;;12.73;4.30;;;-5.10;99.90;;;;;;5037726;28;20485;-77
2024/01/11 01:37:47;;;;;;;13.35;4.65;;;-5.10;99.90;;;;;;5038709;28;20017;-77
2024/01/11 01:40:13;;;;;;;13.68;4.45;;;-5.10;99.90;;;;;;5040059;28;20034;-77
2024/01/11 01:42:46;;;;;;;16.73;5.35;;;-5.10;99.90;;;;;;5040292;28;20520;-77
2024/01/11 01:45:12;;;;;;;15.10;5.13;;;-5.10;99.90;;;;;;5038433;28;20026;-77
2024/01/11 01:47:40;;;;;;;15.93;4.35;;;-5.10;99.90;;;;;;5039163;28;20025;-77
2024/01/11 01:50:07;;;;;;;15.63;4.55;;;-5.10;99.90;;;;;;5039053;28;20030;-77
2024/01/11 01:52:34;;;;;;;15.40;4.78;;;-5.10;99.90;;;;;;5037910;28;20022;-77
2024/01/11 01:55:02;;;;;;;14.13;4.55;;;-5.20;99.90;;;;;;5037733;28;20029;-77
2024/01/11 01:57:30;;;;;;;20.52;5.45;;;-5.10;99.90;;;;;;5038058;28;20020;-77
2024/01/11 01:59:56;;;;;;;16.63;4.40;;;-5.20;99.90;;;;;;5038492;28;20029;-77
2024/01/11 02:02:22;;;;;;;13.93;3.58;;;-5.20;99.90;;;;;;5039736;28;20025;-77
2024/01/11 02:04:51;;;;;;;12.85;4.50;;;-5.30;99.90;;;;;;5040159;28;20028;-77
2024/01/11 02:07:18;;;;;;;13.45;4.70;;;-5.30;99.90;;;;;;5037367;28;20022;-77
2024/01/11 02:09:44;;;;;;;12.77;3.90;;;-5.30;99.90;;;;;;5040609;28;20029;-77
2024/01/11 02:12:12;;;;;;;13.13;4.00;;;-5.30;99.90;;;;;;5039670;28;20465;-77
2024/01/11 02:14:39;;;;;;;13.27;3.42;;;-5.30;99.90;;;;;;5039309;28;20045;-77
2024/01/11 02:17:05;;;;;;;14.63;4.45;;;-5.30;99.90;;;;;;5039254;28;20018;-77
2024/01/11 02:19:30;;;;;;;19.63;4.80;;;-5.30;99.90;;;;;;5040301;28;20100;-77
2024/01/11 02:22:00;;;;;;;15.68;4.78;;;-5.30;99.90;;;;;;5039586;28;20517;-77
2024/01/11 02:24:26;;;;;;;12.90;3.90;;;-5.30;99.90;;;;;;5040009;28;20436;-77
2024/01/11 02:26:59;;;;;;;14.10;4.13;;;-5.40;99.90;;;;;;5040503;28;20033;-77
2024/01/11 02:29:26;;;;;;;17.55;4.72;;;-5.40;99.90;;;;;;5039552;28;20112;-77
2024/01/11 02:31:51;;;;;;;17.80;4.85;;;-5.40;99.90;;;;;;5041869;28;20017;-77
2024/01/11 02:34:17;;;;;;;12.85;4.40;;;-5.50;99.90;;;;;;5041869;28;20096;-75
2024/01/11 02:36:43;;;;;;;15.88;4.60;;;-5.50;99.90;;;;;;5038196;28;20018;-76
2024/01/11 02:39:10;;;;;;;16.95;4.60;;;-5.50;99.90;;;;;;5039451;28;20033;-74
2024/01/11 02:41:37;;;;;;;14.38;4.75;;;-5.60;99.90;;;;;;5037854;28;20025;-74
2024/01/11 02:44:02;;;;;;;16.60;5.28;;;-5.70;99.90;;;;;;5038696;28;20025;-79
2024/01/11 02:46:28;;;;;;;13.90;4.00;;;-5.60;99.90;;;;;;5037999;28;20125;-79
2024/01/11 02:48:54;;;;;;;19.10;5.40;;;-5.60;99.90;;;;;;5037910;28;20024;-79
2024/01/11 02:51:19;;;;;;;15.50;4.35;;;-5.60;99.90;;;;;;5038943;28;20057;-78
2024/01/11 02:53:45;;;;;;;17.08;5.15;;;-5.70;99.90;;;;;;5038600;28;20480;-80
2024/01/11 02:56:13;;;;;;;19.35;6.35;;;-5.70;99.90;;;;;;5038404;28;20021;-79
2024/01/11 02:58:39;;;;;;;21.20;5.15;;;-5.70;99.90;;;;;;5039100;28;20424;-79
2024/01/11 03:01:04;;;;;;;18.67;6.10;;;-5.70;99.90;;;;;;5038428;28;20032;-79
2024/01/11 03:03:30;;;;;;;19.08;4.53;;;-5.80;99.90;;;;;;5036922;28;20408;-79
2024/01/11 03:05:56;;;;;;;13.68;4.88;;;-5.80;99.90;;;;;;5037661;28;20036;-79
2024/01/11 03:08:21;;;;;;;19.33;5.63;;;-5.70;99.90;;;;;;5038120;28;20029;-79
2024/01/11 03:10:47;;;;;;;16.30;5.68;;;-5.80;99.90;;;;;;5038157;28;20025;-79
2024/01/11 03:13:12;;;;;;;22.75;5.10;;;-5.80;99.90;;;;;;5036989;28;20014;-79
2024/01/11 03:15:38;;;;;;;20.77;5.80;;;-5.90;99.90;;;;;;5037162;28;20017;-79
2024/01/11 03:18:04;;;;;;;17.02;5.30;;;-5.90;99.90;;;;;;5037057;28;20097;-79
2024/01/11 03:20:30;;;;;;;14.98;5.60;;;-5.90;99.90;;;;;;5036860;28;20025;-79
2024/01/11 03:22:55;;;;;;;20.52;5.45;;;-6.00;99.90;;;;;;5037760;28;20052;-79
2024/01/11 03:25:21;;;;;;;17.98;6.00;;;-6.00;99.90;;;;;;5037716;28;20018;-79
2024/01/11 03:27:46;;;;;;;21.23;6.35;;;-6.10;99.90;;;;;;5037356;28;20480;-78
2024/01/11 03:30:13;;;;;;;17.08;5.60;;;-6.10;99.90;;;;;;5038389;28;20029;-79
2024/01/11 03:32:38;;;;;;;18.13;5.20;;;-6.10;99.90;;;;;;5038824;28;20021;-79
2024/01/11 03:35:07;;;;;;;20.92;5.88;;;-6.10;99.90;;;;;;5036834;28;20152;-79
2024/01/11 03:37:32;;;;;;;22.23;7.28;;;-6.10;99.90;;;;;;5038288;28;20045;-79
2024/01/11 03:39:58;;;;;;;23.08;6.35;;;-6.20;99.90;;;;;;5038595;28;20022;-79
2024/01/11 03:42:24;;;;;;;17.48;5.85;;;-6.10;99.90;;;;;;5038960;28;20030;-79
2024/01/11 03:44:50;;;;;;;20.98;6.32;;;-6.00;99.90;;;;;;5037395;28;20068;-79
2024/01/11 03:47:16;;;;;;;24.10;7.55;;;;;;;;;;5037021;28;20021;-79
2024/01/11 03:49:41;;;;;;;23.02;7.38;;;-6.00;99.90;;;;;;5036623;28;20048;-79
2024/01/11 03:52:07;;;;;;;20.48;6.65;;;-6.00;99.90;;;;;;5037300;28;20504;-78
2024/01/11 03:54:33;;;;;;;20.98;7.00;;;-6.00;99.90;;;;;;5037727;28;20514;-79
2024/01/11 03:56:59;;;;;;;24.83;7.57;;;-6.00;99.90;;;;;;5038288;28;20017;-79
2024/01/11 03:59:24;;;;;;;24.02;7.05;;;-6.10;99.90;;;;;;5036300;28;20427;-79
2024/01/11 04:01:50;;;;;;;23.25;7.72;;;-6.20;99.90;;;;;;5037569;28;20026;-79
2024/01/11 04:04:16;;;;;;;27.08;7.78;;;-6.10;99.90;;;;;;5035972;28;20108;-79
2024/01/11 04:06:41;;;;;;;20.13;6.72;;;-6.10;99.90;;;;;;5037201;28;20049;-79
2024/01/11 04:09:07;;;;;;;25.35;8.07;;;-6.20;99.90;;;;;;5036338;28;20034;-79
2024/01/11 04:11:33;;;;;;;25.70;7.45;;;-6.20;99.90;;;;;;5036953;28;20561;-79
2024/01/11 04:13:59;;;;;;;26.38;8.20;;;;;;;;;;5035624;28;20075;-79
2024/01/11 04:16:24;;;;;;;24.50;7.90;;;-6.30;99.90;;;;;;5035377;28;20060;-79
2024/01/11 04:18:50;;;;;;;26.00;8.35;;;-6.30;99.90;;;;;;5035868;28;20083;-79
2024/01/11 04:21:29;;;;;;;32.33;7.82;;;-6.30;99.90;;;;;;5035606;28;20017;-79
2024/01/11 04:23:55;;;;;;;20.63;6.72;;;-6.30;99.90;;;;;;5035484;28;20116;-79
2024/01/11 04:26:21;;;;;;;26.88;8.70;;;-6.30;99.90;;;;;;5036513;28;20096;-79
2024/01/11 04:28:47;;;;;;;23.38;8.02;;;-6.40;99.90;;;;;;5035725;28;20433;-79
2024/01/11 04:31:14;;;;;;;26.08;8.90;;;-6.40;99.90;;;;;;5036746;28;20397;-79
2024/01/11 04:33:41;;;;;;;34.13;8.93;;;-5.20;99.90;;;;;;5035485;28;20021;-79
2024/01/11 04:36:08;;;;;;;21.92;7.65;;;-6.40;99.90;;;;;;5035644;28;20104;-79
2024/01/11 04:38:33;;;;;;;26.35;9.10;;;-6.30;99.90;;;;;;5037058;28;20028;-79
2024/01/11 04:40:59;;;;;;;25.90;8.27;;;-6.40;99.90;;;;;;5034606;28;20109;-79
2024/01/11 04:43:24;;;;;;;26.83;9.13;;;-6.40;99.90;;;;;;5034931;28;20492;-79
2024/01/11 04:45:50;;;;;;;24.83;7.95;;;-6.40;99.90;;;;;;5035515;28;20021;-79
2024/01/11 04:48:16;;;;;;;26.08;8.50;;;-6.40;99.90;;;;;;5035896;28;20033;-79
2024/01/11 04:50:43;;;;;;;31.75;9.50;;;-6.40;99.90;;;;;;5036097;28;20481;-79
2024/01/11 04:53:09;;;;;;;26.70;8.40;;;;;;;;;;5036037;28;20104;-79
2024/01/11 04:55:35;;;;;;;31.05;9.50;;;-6.50;99.90;;;;;;5036290;28;20034;-79
2024/01/11 04:58:00;;;;;;;28.65;8.65;;;-6.40;99.90;;;;;;5036310;28;20029;-79
2024/01/11 05:00:26;;;;;;;24.25;8.45;;;-6.50;99.90;;;;;;5034674;28;20167;-79
2024/01/11 05:02:52;;;;;;;27.40;9.35;;;-6.50;99.90;;;;;;5037366;28;20028;-79
2024/01/11 05:05:17;;;;;;;28.13;9.45;;;-6.60;99.90;;;;;;5037294;28;20532;-79
2024/01/11 05:07:43;;;;;;;25.48;8.45;;;-6.60;99.90;;;;;;5035473;28;20026;-79
2024/01/11 05:10:09;;;;;;;30.17;9.25;;;;;;;;;;5037204;28;20100;-79
2024/01/11 05:12:36;;;;;;;28.10;9.80;;;-6.60;99.90;;;;;;5035833;28;20036;-79
2024/01/11 05:15:02;;;;;;;27.98;9.88;;;-6.60;99.90;;;;;;5037017;28;20049;-79
2024/01/11 05:17:28;;;;;;;34.60;11.13;;;-6.60;99.90;;;;;;5035528;28;20025;-79
2024/01/11 05:19:54;;;;;;;30.95;10.38;;;-6.60;99.90;;;;;;5034890;28;20030;-79
2024/01/11 05:22:19;;;;;;;26.83;9.27;;;-6.70;99.90;;;;;;5036677;28;20060;-79
2024/01/11 05:24:45;;;;;;;27.58;8.95;;;;;;;;;;5036794;28;20080;-79
2024/01/11 05:27:11;;;;;;;29.42;10.10;;;-6.70;99.90;;;;;;5034668;28;20109;-79
2024/01/11 05:29:36;;;;;;;28.55;9.32;;;-6.70;99.90;;;;;;5036567;28;20065;-79
2024/01/11 05:32:02;;;;;;;32.92;10.60;;;;;;;;;;5035940;28;20026;-79
2024/01/11 05:34:28;;;;;;;28.05;9.63;;;-6.80;99.90;;;;;;5036016;28;20029;-79
2024/01/11 05:36:54;;;;;;;26.20;8.90;;;-6.80;99.90;;;;;;5035934;28;20088;-79
2024/01/11 05:39:19;;;;;;;26.25;9.02;;;-6.80;99.90;;;;;;5037192;28;20032;-78
2024/01/11 05:41:45;;;;;;;29.73;9.88;;;-6.80;99.90;;;;;;5035912;28;20117;-77
2024/01/11 05:44:11;;;;;;;27.13;9.20;;;-6.80;99.90;;;;;;5036049;28;20030;-76
2024/01/11 05:46:36;;;;;;;25.55;9.48;;;-6.70;99.90;;;;;;5037196;28;20025;-76
2024/01/11 05:49:03;;;;;;;29.92;9.40;;;;;;;;;;5036850;28;20052;-77
2024/01/11 05:51:29;;;;;;;28.05;9.55;;;-6.80;99.90;;;;;;5034558;28;20029;-78
2024/01/11 05:53:55;;;;;;;33.55;10.25;;;-6.80;99.90;;;;;;5034188;28;20451;-78
2024/01/11 05:56:21;;;;;;;28.27;9.13;;;-6.80;99.90;;;;;;5034356;28;20100;-77
2024/01/11 05:58:46;;;;;;;33.55;9.85;;;-6.80;99.90;;;;;;5035086;28;20048;-77
2024/01/11 06:01:12;;;;;;;29.25;10.00;;;-6.80;99.90;;;;;;5035885;28;20175;-77
2024/01/11 06:03:39;;;;;;;30.05;10.35;;;-6.80;99.90;;;;;;5036043;28;20474;-77
2024/01/11 06:06:05;;;;;;;30.65;9.85;;;-6.80;99.90;;;;;;5034680;28;20061;-78
2024/01/11 06:08:31;;;;;;;31.92;10.50;;;-6.80;99.90;;;;;;5035353;28;20026;-78
2024/01/11 06:10:57;;;;;;;27.90;9.32;;;-6.90;99.90;;;;;;5035314;28;20057;-78
2024/01/11 06:13:23;;;;;;;33.55;10.30;;;-6.90;99.90;;;;;;5035597;28;20488;-77
2024/01/11 06:15:50;;;;;;;31.67;9.80;;;-6.90;99.90;;;;;;5034865;28;20117;-77
2024/01/11 06:18:15;;;;;;;37.50;9.85;;;-7.00;99.90;;;;;;5038859;28;20025;-78
2024/01/11 06:20:41;;;;;;;31.83;9.77;;;-6.90;99.90;;;;;;5040442;28;20147;-77
2024/01/11 06:23:07;;;;;;;34.38;9.88;;;-6.90;99.90;;;;;;5039426;28;20104;-78
2024/01/11 06:25:33;;;;;;;32.65;10.52;;;-7.00;99.90;;;;;;5040039;28;20075;-78
2024/01/11 06:27:59;;;;;;;33.40;10.30;;;-7.00;99.90;;;;;;5040238;28;20017;-78
2024/01/11 06:30:24;;;;;;;31.45;9.75;;;-7.00;99.90;;;;;;5040166;28;20369;-78
2024/01/11 06:32:50;;;;;;;29.23;9.73;;;-6.90;99.90;;;;;;5040321;28;20021;-78
2024/01/11 06:35:15;;;;;;;30.48;10.88;;;-6.90;99.90;;;;;;5039824;28;20392;-79
2024/01/11 06:37:41;;;;;;;34.92;11.52;;;-7.00;99.90;;;;;;5041357;28;20024;-80
2024/01/11 06:40:08;;;;;;;38.00;10.95;;;-6.90;99.90;;;;;;5039028;28;20014;-79
2024/01/11 06:42:34;;;;;;;33.72;10.98;;;-6.90;99.90;;;;;;5038639;28;20052;-79
2024/01/11 06:45:03;;;;;;;34.53;10.55;;;-6.90;99.90;;;;;;5038218;28;20025;-79
2024/01/11 06:47:29;;;;;;;35.22;11.20;;;-6.90;99.90;;;;;;5038633;28;20036;-79
2024/01/11 06:49:57;;;;;;;34.80;11.20;;;-7.10;99.90;;;;;;5037458;28;20025;-79
2024/01/11 06:52:22;;;;;;;37.45;11.32;;;-6.90;99.90;;;;;;5037854;28;20524;-79
2024/01/11 06:54:48;;;;;;;32.38;11.07;;;;;;;;;;5039475;28;20069;-80
2024/01/11 06:57:14;;;;;;;40.15;10.73;;;;;;;;;;5039216;28;20117;-79
2024/01/11 06:59:40;;;;;;;35.35;11.55;;;-6.90;99.90;;;;;;5039637;28;20495;-79
2024/01/11 07:02:06;;;;;;;34.47;11.77;;;;;;;;;;5040805;28;20029;-79
2024/01/11 07:04:31;;;;;;;30.10;11.02;;;-6.80;99.90;;;;;;5040745;28;20059;-79
2024/01/11 07:06:57;;;;;;;34.42;10.93;;;-6.80;99.90;;;;;;5041191;28;20021;-79
2024/01/11 07:09:23;;;;;;;40.95;12.70;;;-6.80;99.90;;;;;;5040230;28;20025;-79
2024/01/11 07:11:49;;;;;;;39.90;12.05;;;;;;;;;;5038903;28;20017;-79
2024/01/11 07:14:14;;;;;;;36.00;12.23;;;-6.70;99.90;;;;;;5039481;28;20116;-79
2024/01/11 07:16:40;;;;;;;34.25;11.45;;;-6.80;99.90;;;;;;5038537;28;20037;-79
2024/01/11 07:19:06;;;;;;;33.58;10.90;;;-6.80;99.90;;;;;;5039649;28;20029;-79
2024/01/11 07:21:31;;;;;;;33.10;11.73;;;-6.80;99.90;;;;;;5040416;28;20033;-79
2024/01/11 07:24:00;;;;;;;38.83;12.80;;;-6.80;99.90;;;;;;5038999;28;20032;-79
2024/01/11 07:26:26;;;;;;;36.30;11.98;;;-6.80;99.90;;;;;;5037802;28;20017;-79
2024/01/11 07:28:54;;;;;;;36.60;12.45;;;;;;;;;;5038011;28;20032;-79
2024/01/11 07:31:20;;;;;;;26.65;9.32;;;-6.80;99.90;;;;;;5038072;28;20032;-79
2024/01/11 07:33:46;;;;;;;33.90;11.15;;;-6.90;99.90;;;;;;5038835;28;20060;-79
2024/01/11 07:36:12;;;;;;;36.60;11.73;;;-6.90;99.90;;;;;;5037335;28;20080;-79
2024/01/11 07:38:38;;;;;;;33.90;11.73;;;;;;;;;;5039989;28;20052;-79
2024/01/11 07:41:04;;;;;;;37.42;12.07;;;-6.90;99.90;;;;;;5038941;28;20025;-79
2024/01/11 07:43:30;;;;;;;38.78;11.65;;;-6.80;99.90;;;;;;5039155;28;20026;-79
2024/01/11 07:45:56;;;;;;;33.65;11.23;;;-6.80;99.90;;;;;;5038413;28;20049;-78
2024/01/11 07:48:23;;;;;;;32.75;11.15;;;-6.80;99.90;;;;;;5037819;28;20021;-79
2024/01/11 07:50:49;;;;;;;36.60;11.73;;;-6.80;99.90;;;;;;5037427;28;20014;-78
2024/01/11 07:53:14;;;;;;;46.08;12.18;;;-6.80;99.90;;;;;;5037418;28;20030;-78
2024/01/11 07:55:41;;;;;;;39.75;12.77;;;-6.70;99.90;;;;;;5036978;28;20101;-78
2024/01/11 07:58:07;;;;;;;36.60;10.85;;;-4.90;99.90;;;;;;5038895;28;20036;-77
2024/01/11 08:00:33;;;;;;;35.53;12.00;;;-6.70;99.90;;;;;;5038162;28;20123;-78
2024/01/11 08:02:59;;;;;;;36.45;12.18;;;-6.80;99.90;;;;;;5038802;28;20025;-79
2024/01/11 08:05:25;;;;;;;36.22;11.88;;;-6.70;99.90;;;;;;5040390;28;20057;-78
2024/01/11 08:07:51;;;;;;;39.97;12.98;;;-6.70;99.90;;;;;;5039416;28;20075;-78
2024/01/11 08:10:19;;;;;;;37.47;12.38;;;-6.70;99.90;;;;;;5039296;28;20025;-78
2024/01/11 08:12:45;;;;;;;36.67;13.25;;;-6.70;99.90;;;;;;5037985;28;20018;-79
2024/01/11 08:15:13;;;;;;;40.63;12.50;;;-6.50;99.90;;;;;;5038206;28;20101;-78
2024/01/11 08:17:43;;;;;;;36.10;12.18;;;-6.60;99.90;;;;;;5039378;28;20018;-78
2024/01/11 08:20:11;;;;;;;40.60;12.07;;;-6.50;99.90;;;;;;5037790;28;20397;-79
2024/01/11 08:22:39;;;;;;;37.83;12.40;;;-6.40;99.90;;;;;;5037193;28;20013;-78
2024/01/11 08:25:05;;;;;;;39.33;12.00;;;-6.30;99.90;;;;;;5037917;28;20424;-78
2024/01/11 08:27:31;;;;;;;36.45;11.98;;;-6.30;99.90;;;;;;5036236;28;20026;-78
2024/01/11 08:29:57;;;;;;;38.85;11.88;;;-6.20;99.90;;;;;;5036762;28;20040;-79
2024/01/11 08:32:23;;;;;;;36.45;11.40;;;-6.20;99.90;;;;;;5036830;28;20384;-78
2024/01/11 08:34:52;;;;;;;33.78;11.57;;;-6.10;99.90;;;;;;5036142;28;20025;-78
2024/01/11 08:37:17;;;;;;;;;;;-6.10;99.90;;;;;;5036739;28;20485;-78
2024/01/11 08:39:46;;;;;;;33.72;11.75;;;-6.00;99.90;;;;;;5037504;28;20001;-79
2024/01/11 08:42:12;;;;;;;;;;;-6.00;99.90;;;;;;5036873;28;20526;-79
2024/01/11 08:44:44;;;;;;;34.75;11.07;;;-5.80;99.90;;;;;;5036088;28;19905;-79
2024/01/11 08:47:10;;;;;;;34.65;12.15;;;-5.80;99.90;;;;;;5037633;28;20026;-78
2024/01/11 08:49:39;;;;;;;42.28;12.27;;;-5.70;99.90;;;;;;5037198;28;20083;-79
2024/01/11 08:52:05;;;;;;;34.92;12.25;;;-5.60;99.90;;;;;;5036606;28;20067;-80
2024/01/11 08:54:32;;;;;;;41.55;12.85;;;-5.30;99.90;;;;;;5035754;28;20029;-79
2024/01/11 08:56:58;;;;;;;40.08;13.32;;;-5.30;99.90;;;;;;5035581;28;20023;-79
2024/01/11 08:59:25;;;;;;;41.22;12.43;;;;;;;;;;5036075;28;20052;-78
2024/01/11 09:01:51;;;;;;;35.60;12.60;;;-5.10;99.90;;;;;;5036450;28;20030;-79
2024/01/11 09:04:17;;;;;;;38.67;13.35;;;-4.90;99.90;;;;;;5038346;28;20022;-79
2024/01/11 09:06:43;;;;;;;39.50;14.05;;;-4.90;99.90;;;;;;5036223;28;20035;-77
2024/01/11 09:09:10;;;;;;;38.63;13.77;;;-4.90;99.90;;;;;;5035995;28;20017;-79
2024/01/11 09:11:36;;;;;;;38.90;12.18;;;-4.80;99.90;;;;;;5035587;28;20067;-79
2024/01/11 09:14:04;;;;;;;41.75;14.18;;;-4.70;99.90;;;;;;5036163;28;20052;-79
2024/01/11 09:16:30;;;;;;;35.05;12.52;;;-4.60;99.90;;;;;;5036681;28;20025;-79
2024/01/11 09:18:56;;;;;;;37.70;12.63;;;-4.50;99.90;;;;;;5035550;28;20034;-79
2024/01/11 09:21:22;;;;;;;41.28;13.30;;;-4.50;99.90;;;;;;5036508;28;20025;-78
2024/01/11 09:23:47;;;;;;;48.35;14.27;;;-4.40;99.90;;;;;;5036832;28;20029;-78
2024/01/11 09:26:13;;;;;;;35.33;12.23;;;-4.30;99.90;;;;;;5035661;28;20022;-78
2024/01/11 09:28:39;;;;;;;47.80;13.82;;;-4.20;99.90;;;;;;5037206;28;20049;-78
2024/01/11 09:31:04;;;;;;;41.70;13.48;;;-4.20;99.90;;;;;;5035961;28;20022;-78
2024/01/11 09:33:30;;;;;;;38.13;12.55;;;-3.90;99.90;;;;;;5035780;28;20017;-78
2024/01/11 09:35:56;;;;;;;39.50;13.02;;;-3.90;99.90;;;;;;5035730;28;20014;-78
2024/01/11 09:38:22;;;;;;;43.60;12.98;;;-3.90;99.90;;;;;;5036361;28;20024;-78
2024/01/11 09:41:08;;;;;;;36.33;11.57;;;-3.60;99.90;;;;;;5035761;28;20022;-78
2024/01/11 09:43:35;;;;;;;36.67;12.93;;;-3.60;99.90;;;;;;5035692;28;20481;-79
2024/01/11 09:46:05;;;;;;;35.95;13.02;;;-3.40;99.90;;;;;;5035926;28;20109;-78
2024/01/11 09:48:35;;;;;;;36.03;12.50;;;-3.30;99.90;;;;;;5035909;28;20040;-78
2024/01/11 09:51:05;;;;;;;34.33;11.90;;;-3.20;99.90;;;;;;5037223;28;20045;-78
2024/01/11 09:53:32;;;;;;;39.40;12.57;;;-3.10;99.90;;;;;;5040514;28;20029;-78
2024/01/11 09:55:59;;;;;;;37.83;13.60;;;-3.00;99.90;;;;;;5039620;28;20022;-79
2024/01/11 09:58:25;;;;;;;33.67;12.52;;;-2.90;99.90;;;;;;5041401;28;20029;-77
2024/01/11 10:00:55;;;;;;;33.58;11.55;;;-2.80;99.90;;;;;;5041108;28;20033;-77
2024/01/11 10:03:24;;;;;;;37.88;12.60;;;-2.80;99.90;;;;;;5039318;28;20448;-77
2024/01/11 10:05:51;;;;;;;32.58;11.10;;;-2.70;99.90;;;;;;5040179;28;20017;-76
2024/01/11 10:08:21;;;;;;;37.72;12.18;;;-2.00;99.90;;;;;;5039808;28;20022;-77
2024/01/11 10:10:47;;;;;;;33.35;10.80;;;-2.60;99.90;;;;;;5039036;28;20017;-77
2024/01/11 10:13:12;;;;;;;35.17;11.80;;;-2.50;99.90;;;;;;5039422;28;20028;-77
2024/01/11 10:15:38;;;;;;;33.50;11.05;;;-2.30;99.90;;;;;;5039669;28;20025;-77
2024/01/11 10:18:04;;;;;;;32.47;11.43;;;-2.20;99.90;;;;;;5038990;28;20608;-77
2024/01/11 10:20:31;;;;;;;34.30;11.75;;;-2.10;99.90;;;;;;5039886;28;20408;-77
2024/01/11 10:22:58;;;;;;;32.63;11.48;;;-1.40;99.90;;;;;;5038473;28;20033;-76
2024/01/11 10:25:29;;;;;;;36.08;12.25;;;-2.00;99.90;;;;;;5040017;28;20072;-76
2024/01/11 10:27:55;;;;;;;38.60;12.60;;;-1.90;99.90;;;;;;5039381;28;20095;-79
2024/01/11 10:30:23;;;;;;;37.35;11.48;;;-1.80;99.90;;;;;;5040612;28;20029;-79
2024/01/11 10:32:49;;;;;;;32.53;11.18;;;-1.70;99.90;;;;;;5039069;28;20037;-78
2024/01/11 12:03:35;;;;;;;24.40;8.30;;;0.50;99.90;;;;;;5427301;23;20050;-78
2024/01/11 12:06:01;;;;;;;20.00;7.78;;;0.40;99.90;;;;;;5029326;28;20064;-78
2024/01/11 12:08:27;;;;;;;22.08;8.07;;;0.40;99.90;;;;;;5038746;28;20477;-79
2024/01/11 12:10:53;;;;;;;28.05;9.27;;;0.40;99.90;;;;;;5038363;28;20053;-78
2024/01/11 12:13:19;;;;;;;28.38;8.73;;;0.50;99.90;;;;;;5037775;28;20025;-79
2024/01/11 12:15:44;;;;;;;26.27;8.32;;;0.60;99.90;;;;;;5019727;28;20022;-78
2024/01/11 12:18:10;;;;;;;24.67;8.85;;;0.60;99.90;;;;;;5020262;28;20025;-79
2024/01/11 12:20:36;;;;;;;20.88;7.13;;;;;;;;;;5020381;28;20025;-79
2024/01/11 12:23:03;;;;;;;23.45;8.43;;;0.70;99.90;;;;;;5038549;28;20029;-79
2024/01/11 12:25:29;;;;;;;22.10;7.38;;;0.70;99.90;;;;;;5019555;28;20028;-79
2024/01/11 12:27:55;;;;;;;20.95;7.18;;;0.70;99.90;;;;;;5020250;28;20032;-78
2024/01/11 12:30:27;;;;;;;18.83;8.15;;;0.90;99.90;;;;;;5019231;28;20087;-79
2024/01/11 12:32:56;;;;;;;21.15;7.70;;;0.90;99.90;;;;;;5020489;28;20057;-78
2024/01/11 12:35:25;;;;;;;21.33;7.75;;;1.00;99.90;;;;;;5019138;28;20075;-78
2024/01/11 12:37:55;;;;;;;21.30;7.10;;;1.00;99.90;;;;;;5020505;28;20018;-78
2024/01/11 12:40:21;;;;;;;22.60;7.80;;;1.10;99.90;;;;;;5038020;28;20109;-78
2024/01/11 12:42:49;;;;;;;21.55;7.07;;;1.10;99.90;;;;;;5020912;28;20033;-78
2024/01/11 16:06:29;;;;;;;19.08;5.80;;;1.60;99.90;;;;;;6115741;23;20021;31
2024/01/11 16:08:55;;;;;;;16.73;5.43;;;;;;;;;;4995102;28;20038;-79
2024/01/11 16:11:29;;;;;;;16.02;6.30;;;;;;;;;;5000348;28;20077;-79
2024/01/11 16:13:58;;;;;;;18.42;6.78;;;;;;;;;;4998342;28;20030;-79
2024/01/11 17:11:31;;;;;;;18.67;6.93;;;;;;;;;;5224012;23;20079;-79
2024/01/11 17:13:57;;;;;;;18.50;7.85;;;1.50;99.90;;;;;;4996682;28;20037;-79
2024/01/11 17:16:23;;;;;;;16.38;6.82;;;1.50;99.90;;;;;;4995348;28;20015;-79
2024/01/11 17:18:49;;;;;;;20.40;8.13;;;1.40;99.90;;;;;;4996519;28;20536;-79
2024/01/11 17:21:14;;;;;;;19.88;7.32;;;1.40;99.90;;;;;;4998188;28;20030;-77
2024/01/11 17:23:40;;;;;;;21.42;7.43;;;1.40;99.90;;;;;;4997901;28;20033;-78
2024/01/11 17:26:06;;;;;;;20.42;7.53;;;1.40;99.90;;;;;;4998381;28;20096;-78
2024/01/11 17:28:33;;;;;;;17.52;7.32;;;1.40;99.90;;;;;;4998552;28;20050;-77
2024/01/11 17:30:58;;;;;;;18.23;7.78;;;1.40;99.90;;;;;;4999735;28;20023;-77
2024/01/11 17:33:25;;;;;;;17.92;7.30;;;1.50;99.90;;;;;;4998362;28;20033;-77
2024/01/11 17:35:50;;;;;;;19.83;7.03;;;1.40;99.90;;;;;;4997960;28;20014;-77
2024/01/11 17:38:16;;;;;;;23.38;8.10;;;1.40;99.90;;;;;;4997012;28;20085;-77
2024/01/11 17:40:41;;;;;;;20.02;8.23;;;1.40;99.90;;;;;;4999115;28;20050;-77
2024/01/11 17:43:10;;;;;;;18.20;7.38;;;1.40;99.90;;;;;;4998299;28;20049;-78
2024/01/11 17:45:37;;;;;;;19.98;8.10;;;1.40;99.90;;;;;;4998257;28;20037;-78
2024/01/11 17:48:04;;;;;;;21.65;8.45;;;1.40;99.90;;;;;;4998780;28;20034;-78
2024/01/11 17:50:32;;;;;;;20.05;7.45;;;1.40;99.90;;;;;;4997403;28;20105;-77
2024/01/11 17:52:58;;;;;;;18.13;7.05;;;1.50;99.90;;;;;;4998488;28;20019;-77
2024/01/11 17:55:24;;;;;;;21.00;8.38;;;1.50;99.90;;;;;;4997173;28;20023;-78
2024/01/11 17:57:49;;;;;;;20.90;7.55;;;1.50;99.90;;;;;;4997815;28;20437;-77
2024/01/11 18:00:19;;;;;;;23.65;8.70;;;;;;;;;;4998268;28;20086;-77
2024/01/11 18:02:45;;;;;;;21.67;7.95;;;;;;;;;;4998242;28;20026;-77
2024/01/11 18:05:11;;;;;;;18.08;8.15;;;1.50;99.90;;;;;;4997797;28;20057;-78
2024/01/11 18:07:37;;;;;;;22.13;8.80;;;1.40;99.90;;;;;;4996338;28;20022;-78
2024/01/11 18:10:03;;;;;;;20.15;8.07;;;1.50;99.90;;;;;;4996786;28;20530;-77
2024/01/11 18:12:29;;;;;;;19.08;7.63;;;1.50;99.90;;;;;;4997631;28;20035;-77
2024/01/11 18:18:03;;;;;;;26.25;7.85;;;;;;;;;;4999159;28;20050;-77
2024/01/11 18:20:32;;;;;;;22.10;8.57;;;;;;;;;;5000435;28;20035;-77
2024/01/11 18:22:59;;;;;;;23.75;8.30;;;;;;;;;;5000850;28;20027;-77
2024/01/11 18:25:25;;;;;;;21.85;8.30;;;;;;;;;;4999908;28;20113;-76
2024/01/11 18:27:51;;;;;;;27.25;9.65;;;;;;;;;;5000609;28;20034;-76
2024/01/11 18:30:17;;;;;;;23.38;8.68;;;;;;;;;;4998493;28;20089;-76
2024/01/11 18:32:42;;;;;;;23.52;8.93;;;1.50;99.90;;;;;;5000719;28;20029;-76
2024/01/11 18:35:09;;;;;;;19.83;8.65;;;1.50;99.90;;;;;;5000574;28;20433;-76
2024/01/11 18:37:35;;;;;;;23.48;8.15;;;;;;;;;;4998463;28;20085;-76
2024/01/11 18:40:00;;;;;;;25.98;8.73;;;1.50;99.90;;;;;;4998998;28;20482;-76
2024/01/11 18:42:26;;;;;;;21.52;8.23;;;1.60;99.90;;;;;;4997944;28;20027;-77
2024/01/11 18:44:53;;;;;;;23.25;9.50;;;1.60;99.90;;;;;;4999737;28;20022;-76
2024/01/11 18:47:18;;;;;;;26.83;9.90;;;1.60;99.90;;;;;;4999278;28;20617;-79